sensor_id;sensor_type;location;lat;lon;timestamp;P1;durP1;ratioP1;P2;durP2;ratioP2
14890;SDS011;7537;48.014;11.590;2022-10-22T00:03:10;2.39;;;2.06;;
14890;SDS011;7537;48.014;11.590;2022-10-22T00:08:37;3.04;;;2.23;;
14890;SDS011;7537;48.014;11.590;2022-10-22T00:14:04;5.12;;;2.14;;
14890;SDS011;7537;48.014;11.590;2022-10-22T00:19:32;3.69;;;2.48;;
14890;SDS011;7537;48.014;11.590;2022-10-22T00:24:59;3.88;;;2.91;;
14890;SDS011;7537;48.014;11.590;2022-10-22T00:32:14;2.46;;;2.42;;
14890;SDS011;7537;48.014;11.590;2022-10-22T00:37:41;3.56;;;2.44;;
14890;SDS011;7537;48.014;11.590;2022-10-22T00:43:10;6.46;;;2.62;;
14890;SDS011;7537;48.014;11.590;2022-10-22T00:48:38;2.55;;;2.29;;
14890;SDS011;7537;48.014;11.590;2022-10-22T00:55:43;3.65;;;2.16;;
14890;SDS011;7537;48.014;11.590;2022-10-22T01:01:12;1.68;;;1.77;;
14890;SDS011;7537;48.014;11.590;2022-10-22T01:06:41;2.83;;;1.52;;
14890;SDS011;7537;48.014;11.590;2022-10-22T01:12:09;4.34;;;1.61;;
14890;SDS011;7537;48.014;11.590;2022-10-22T01:17:40;0.69;;;0.81;;
14890;SDS011;7537;48.014;11.590;2022-10-22T01:23:13;4.36;;;1.62;;
14890;SDS011;7537;48.014;11.590;2022-10-22T01:28:45;4.34;;;1.51;;
14890;SDS011;7537;48.014;11.590;2022-10-22T01:34:15;1.95;;;1.46;;
14890;SDS011;7537;48.014;11.590;2022-10-22T01:39:44;3.92;;;1.26;;
14890;SDS011;7537;48.014;11.590;2022-10-22T01:45:13;5.86;;;2.19;;
14890;SDS011;7537;48.014;11.590;2022-10-22T01:50:46;0.96;;;1.06;;
14890;SDS011;7537;48.014;11.590;2022-10-22T01:56:24;1.43;;;1.31;;
14890;SDS011;7537;48.014;11.590;2022-10-22T02:03:33;1.41;;;1.19;;
14890;SDS011;7537;48.014;11.590;2022-10-22T02:09:06;1.34;;;1.26;;
14890;SDS011;7537;48.014;11.590;2022-10-22T02:14:34;1.53;;;1.54;;
14890;SDS011;7537;48.014;11.590;2022-10-22T02:20:04;2.60;;;1.89;;
14890;SDS011;7537;48.014;11.590;2022-10-22T02:27:11;1.44;;;1.11;;
14890;SDS011;7537;48.014;11.590;2022-10-22T02:32:43;4.01;;;1.73;;
14890;SDS011;7537;48.014;11.590;2022-10-22T02:38:12;3.12;;;2.17;;
14890;SDS011;7537;48.014;11.590;2022-10-22T02:43:40;1.85;;;1.49;;
14890;SDS011;7537;48.014;11.590;2022-10-22T02:49:09;2.34;;;1.97;;
14890;SDS011;7537;48.014;11.590;2022-10-22T02:54:37;5.63;;;1.38;;
14890;SDS011;7537;48.014;11.590;2022-10-22T03:00:06;1.09;;;1.17;;
14890;SDS011;7537;48.014;11.590;2022-10-22T03:05:34;1.21;;;1.02;;
14890;SDS011;7537;48.014;11.590;2022-10-22T03:11:01;1.52;;;1.54;;
14890;SDS011;7537;48.014;11.590;2022-10-22T03:16:28;1.09;;;0.98;;
14890;SDS011;7537;48.014;11.590;2022-10-22T03:21:58;4.51;;;1.44;;
14890;SDS011;7537;48.014;11.590;2022-10-22T03:27:30;1.40;;;1.45;;
14890;SDS011;7537;48.014;11.590;2022-10-22T03:32:57;1.52;;;1.44;;
14890;SDS011;7537;48.014;11.590;2022-10-22T03:38:25;1.47;;;1.51;;
14890;SDS011;7537;48.014;11.590;2022-10-22T03:43:52;2.31;;;1.66;;
14890;SDS011;7537;48.014;11.590;2022-10-22T03:49:20;2.58;;;1.67;;
14890;SDS011;7537;48.014;11.590;2022-10-22T03:54:49;1.79;;;1.44;;
14890;SDS011;7537;48.014;11.590;2022-10-22T04:00:17;1.17;;;1.17;;
14890;SDS011;7537;48.014;11.590;2022-10-22T04:05:44;1.31;;;0.70;;
14890;SDS011;7537;48.014;11.590;2022-10-22T04:11:12;2.01;;;0.94;;
14890;SDS011;7537;48.014;11.590;2022-10-22T04:16:40;2.39;;;1.05;;
14890;SDS011;7537;48.014;11.590;2022-10-22T04:22:08;0.39;;;0.36;;
14890;SDS011;7537;48.014;11.590;2022-10-22T04:27:40;0.57;;;0.62;;
14890;SDS011;7537;48.014;11.590;2022-10-22T04:33:08;0.43;;;0.47;;
14890;SDS011;7537;48.014;11.590;2022-10-22T04:38:35;2.38;;;0.49;;
14890;SDS011;7537;48.014;11.590;2022-10-22T04:44:03;2.86;;;0.79;;
14890;SDS011;7537;48.014;11.590;2022-10-22T04:49:30;0.53;;;0.38;;
14890;SDS011;7537;48.014;11.590;2022-10-22T04:54:58;1.77;;;0.71;;
14890;SDS011;7537;48.014;11.590;2022-10-22T05:00:27;2.78;;;0.40;;
14890;SDS011;7537;48.014;11.590;2022-10-22T05:05:54;1.57;;;0.56;;
14890;SDS011;7537;48.014;11.590;2022-10-22T05:11:23;1.07;;;0.79;;
14890;SDS011;7537;48.014;11.590;2022-10-22T05:16:51;0.45;;;0.43;;
14890;SDS011;7537;48.014;11.590;2022-10-22T05:22:19;0.46;;;0.46;;
14890;SDS011;7537;48.014;11.590;2022-10-22T05:27:50;0.79;;;0.61;;
14890;SDS011;7537;48.014;11.590;2022-10-22T05:33:19;0.76;;;0.39;;
14890;SDS011;7537;48.014;11.590;2022-10-22T05:38:47;0.50;;;0.50;;
14890;SDS011;7537;48.014;11.590;2022-10-22T05:44:15;0.38;;;0.42;;
14890;SDS011;7537;48.014;11.590;2022-10-22T05:49:42;0.88;;;0.59;;
14890;SDS011;7537;48.014;11.590;2022-10-22T05:55:11;1.66;;;0.49;;
14890;SDS011;7537;48.014;11.590;2022-10-22T06:00:41;0.34;;;0.28;;
14890;SDS011;7537;48.014;11.590;2022-10-22T06:06:13;1.24;;;0.34;;
14890;SDS011;7537;48.014;11.590;2022-10-22T06:11:45;0.24;;;0.28;;
14890;SDS011;7537;48.014;11.590;2022-10-22T06:17:12;0.88;;;0.82;;
14890;SDS011;7537;48.014;11.590;2022-10-22T06:22:40;2.40;;;0.63;;
14890;SDS011;7537;48.014;11.590;2022-10-22T06:28:10;1.76;;;0.45;;
14890;SDS011;7537;48.014;11.590;2022-10-22T06:33:38;1.88;;;0.54;;
14890;SDS011;7537;48.014;11.590;2022-10-22T06:39:05;0.93;;;0.55;;
14890;SDS011;7537;48.014;11.590;2022-10-22T06:44:34;0.48;;;0.40;;
14890;SDS011;7537;48.014;11.590;2022-10-22T06:50:01;1.26;;;0.89;;
14890;SDS011;7537;48.014;11.590;2022-10-22T06:55:29;0.23;;;0.29;;
14890;SDS011;7537;48.014;11.590;2022-10-22T07:01:06;0.29;;;0.33;;
14890;SDS011;7537;48.014;11.590;2022-10-22T07:06:34;1.62;;;0.61;;
14890;SDS011;7537;48.014;11.590;2022-10-22T07:12:01;0.44;;;0.49;;
14890;SDS011;7537;48.014;11.590;2022-10-22T07:17:30;0.54;;;0.59;;
14890;SDS011;7537;48.014;11.590;2022-10-22T07:22:58;0.54;;;0.57;;
14890;SDS011;7537;48.014;11.590;2022-10-22T07:28:29;0.40;;;0.39;;
14890;SDS011;7537;48.014;11.590;2022-10-22T07:33:56;0.56;;;0.62;;
14890;SDS011;7537;48.014;11.590;2022-10-22T07:39:24;0.45;;;0.46;;
14890;SDS011;7537;48.014;11.590;2022-10-22T07:44:51;0.31;;;0.35;;
14890;SDS011;7537;48.014;11.590;2022-10-22T07:50:20;1.29;;;0.65;;
14890;SDS011;7537;48.014;11.590;2022-10-22T07:55:48;1.24;;;1.15;;
14890;SDS011;7537;48.014;11.590;2022-10-22T08:01:15;2.71;;;0.94;;
14890;SDS011;7537;48.014;11.590;2022-10-22T08:06:43;0.45;;;0.52;;
14890;SDS011;7537;48.014;11.590;2022-10-22T08:12:10;0.61;;;0.68;;
14890;SDS011;7537;48.014;11.590;2022-10-22T08:17:38;0.77;;;0.80;;
14890;SDS011;7537;48.014;11.590;2022-10-22T08:23:07;1.70;;;0.79;;
14890;SDS011;7537;48.014;11.590;2022-10-22T08:28:38;1.82;;;0.57;;
14890;SDS011;7537;48.014;11.590;2022-10-22T08:34:06;1.11;;;0.81;;
14890;SDS011;7537;48.014;11.590;2022-10-22T08:39:33;0.60;;;0.67;;
14890;SDS011;7537;48.014;11.590;2022-10-22T08:45:09;0.88;;;0.94;;
14890;SDS011;7537;48.014;11.590;2022-10-22T08:50:39;1.58;;;0.65;;
14890;SDS011;7537;48.014;11.590;2022-10-22T08:56:08;0.92;;;0.81;;
14890;SDS011;7537;48.014;11.590;2022-10-22T09:01:37;0.61;;;0.67;;
14890;SDS011;7537;48.014;11.590;2022-10-22T09:07:07;1.17;;;0.81;;
14890;SDS011;7537;48.014;11.590;2022-10-22T09:12:36;0.52;;;0.59;;
14890;SDS011;7537;48.014;11.590;2022-10-22T09:18:09;3.12;;;0.54;;
14890;SDS011;7537;48.014;11.590;2022-10-22T09:23:43;2.91;;;0.69;;
14890;SDS011;7537;48.014;11.590;2022-10-22T09:29:20;1.12;;;0.51;;
14890;SDS011;7537;48.014;11.590;2022-10-22T09:34:49;1.78;;;1.44;;
14890;SDS011;7537;48.014;11.590;2022-10-22T09:40:21;1.21;;;1.26;;
14890;SDS011;7537;48.014;11.590;2022-10-22T09:45:54;0.89;;;0.98;;
14890;SDS011;7537;48.014;11.590;2022-10-22T09:51:22;1.26;;;0.63;;
14890;SDS011;7537;48.014;11.590;2022-10-22T09:56:51;3.49;;;0.87;;
14890;SDS011;7537;48.014;11.590;2022-10-22T10:02:22;0.96;;;0.82;;
14890;SDS011;7537;48.014;11.590;2022-10-22T10:07:49;1.72;;;0.94;;
14890;SDS011;7537;48.014;11.590;2022-10-22T10:13:26;0.93;;;0.96;;
14890;SDS011;7537;48.014;11.590;2022-10-22T10:19:00;1.16;;;0.59;;
14890;SDS011;7537;48.014;11.590;2022-10-22T10:24:31;0.55;;;0.62;;
14890;SDS011;7537;48.014;11.590;2022-10-22T10:30:10;0.67;;;0.66;;
14890;SDS011;7537;48.014;11.590;2022-10-22T10:35:42;0.58;;;0.46;;
14890;SDS011;7537;48.014;11.590;2022-10-22T10:41:20;2.45;;;1.11;;
14890;SDS011;7537;48.014;11.590;2022-10-22T10:46:52;0.78;;;0.89;;
14890;SDS011;7537;48.014;11.590;2022-10-22T10:52:25;0.71;;;0.71;;
14890;SDS011;7537;48.014;11.590;2022-10-22T10:57:56;0.47;;;0.53;;
14890;SDS011;7537;48.014;11.590;2022-10-22T11:03:42;1.51;;;0.26;;
14890;SDS011;7537;48.014;11.590;2022-10-22T11:09:19;1.06;;;0.61;;
14890;SDS011;7537;48.014;11.590;2022-10-22T11:14:51;0.60;;;0.65;;
14890;SDS011;7537;48.014;11.590;2022-10-22T11:20:23;1.21;;;0.56;;
14890;SDS011;7537;48.014;11.590;2022-10-22T11:25:51;0.66;;;0.43;;
14890;SDS011;7537;48.014;11.590;2022-10-22T11:31:22;1.41;;;0.91;;
14890;SDS011;7537;48.014;11.590;2022-10-22T11:36:50;4.13;;;0.60;;
14890;SDS011;7537;48.014;11.590;2022-10-22T11:42:21;2.24;;;0.44;;
14890;SDS011;7537;48.014;11.590;2022-10-22T11:47:52;0.38;;;0.42;;
14890;SDS011;7537;48.014;11.590;2022-10-22T11:53:31;2.26;;;0.49;;
14890;SDS011;7537;48.014;11.590;2022-10-22T11:58:58;2.64;;;0.37;;
14890;SDS011;7537;48.014;11.590;2022-10-22T12:04:39;0.62;;;0.60;;
14890;SDS011;7537;48.014;11.590;2022-10-22T12:10:11;1.26;;;0.99;;
14890;SDS011;7537;48.014;11.590;2022-10-22T12:15:46;1.91;;;0.80;;
14890;SDS011;7537;48.014;11.590;2022-10-22T12:21:14;0.59;;;0.16;;
14890;SDS011;7537;48.014;11.590;2022-10-22T12:26:42;1.70;;;0.60;;
14890;SDS011;7537;48.014;11.590;2022-10-22T12:32:14;0.70;;;0.65;;
14890;SDS011;7537;48.014;11.590;2022-10-22T12:37:41;1.84;;;0.63;;
14890;SDS011;7537;48.014;11.590;2022-10-22T12:43:12;2.08;;;0.51;;
14890;SDS011;7537;48.014;11.590;2022-10-22T12:48:42;0.61;;;0.55;;
14890;SDS011;7537;48.014;11.590;2022-10-22T12:54:12;0.54;;;0.47;;
14890;SDS011;7537;48.014;11.590;2022-10-22T12:59:43;0.45;;;0.38;;
14890;SDS011;7537;48.014;11.590;2022-10-22T13:05:19;1.46;;;0.67;;
14890;SDS011;7537;48.014;11.590;2022-10-22T13:10:49;3.62;;;1.03;;
14890;SDS011;7537;48.014;11.590;2022-10-22T13:16:18;1.60;;;1.23;;
14890;SDS011;7537;48.014;11.590;2022-10-22T13:21:48;1.99;;;1.13;;
14890;SDS011;7537;48.014;11.590;2022-10-22T13:27:15;1.81;;;0.45;;
14890;SDS011;7537;48.014;11.590;2022-10-22T13:32:49;1.64;;;0.60;;
14890;SDS011;7537;48.014;11.590;2022-10-22T13:38:17;1.07;;;1.04;;
14890;SDS011;7537;48.014;11.590;2022-10-22T13:43:45;1.00;;;1.10;;
14890;SDS011;7537;48.014;11.590;2022-10-22T13:49:22;1.03;;;1.02;;
14890;SDS011;7537;48.014;11.590;2022-10-22T13:54:51;3.66;;;0.87;;
14890;SDS011;7537;48.014;11.590;2022-10-22T14:00:19;1.14;;;0.91;;
14890;SDS011;7537;48.014;11.590;2022-10-22T14:05:47;1.53;;;0.82;;
14890;SDS011;7537;48.014;11.590;2022-10-22T14:11:14;1.72;;;0.52;;
14890;SDS011;7537;48.014;11.590;2022-10-22T14:16:42;4.99;;;1.44;;
14890;SDS011;7537;48.014;11.590;2022-10-22T14:22:10;1.08;;;0.74;;
14890;SDS011;7537;48.014;11.590;2022-10-22T14:27:40;2.26;;;0.46;;
14890;SDS011;7537;48.014;11.590;2022-10-22T14:33:12;1.82;;;0.59;;
14890;SDS011;7537;48.014;11.590;2022-10-22T14:38:41;1.54;;;0.67;;
14890;SDS011;7537;48.014;11.590;2022-10-22T14:44:09;2.58;;;0.56;;
14890;SDS011;7537;48.014;11.590;2022-10-22T14:49:37;1.41;;;0.51;;
14890;SDS011;7537;48.014;11.590;2022-10-22T14:55:07;4.40;;;0.74;;
14890;SDS011;7537;48.014;11.590;2022-10-22T15:02:14;1.79;;;0.57;;
14890;SDS011;7537;48.014;11.590;2022-10-22T15:07:41;0.39;;;0.45;;
14890;SDS011;7537;48.014;11.590;2022-10-22T15:13:09;2.65;;;0.42;;
14890;SDS011;7537;48.014;11.590;2022-10-22T15:18:36;0.89;;;0.53;;
14890;SDS011;7537;48.014;11.590;2022-10-22T15:24:04;2.51;;;0.77;;
14890;SDS011;7537;48.014;11.590;2022-10-22T15:29:33;2.09;;;0.71;;
14890;SDS011;7537;48.014;11.590;2022-10-22T15:35:02;2.39;;;1.50;;
14890;SDS011;7537;48.014;11.590;2022-10-22T15:40:30;0.82;;;0.81;;
14890;SDS011;7537;48.014;11.590;2022-10-22T15:46:07;0.44;;;0.50;;
14890;SDS011;7537;48.014;11.590;2022-10-22T15:51:35;1.79;;;0.67;;
14890;SDS011;7537;48.014;11.590;2022-10-22T15:57:02;4.69;;;0.87;;
14890;SDS011;7537;48.014;11.590;2022-10-22T16:02:34;8.89;;;1.27;;
14890;SDS011;7537;48.014;11.590;2022-10-22T16:08:03;4.62;;;0.81;;
14890;SDS011;7537;48.014;11.590;2022-10-22T16:13:30;3.83;;;0.81;;
14890;SDS011;7537;48.014;11.590;2022-10-22T16:18:57;5.07;;;1.13;;
14890;SDS011;7537;48.014;11.590;2022-10-22T16:24:25;2.46;;;0.91;;
14890;SDS011;7537;48.014;11.590;2022-10-22T16:29:52;1.12;;;0.97;;
14890;SDS011;7537;48.014;11.590;2022-10-22T16:35:20;2.13;;;1.32;;
14890;SDS011;7537;48.014;11.590;2022-10-22T16:40:48;3.30;;;1.14;;
14890;SDS011;7537;48.014;11.590;2022-10-22T16:46:16;2.63;;;0.78;;
14890;SDS011;7537;48.014;11.590;2022-10-22T16:51:44;1.38;;;0.71;;
14890;SDS011;7537;48.014;11.590;2022-10-22T16:57:11;1.64;;;1.07;;
14890;SDS011;7537;48.014;11.590;2022-10-22T17:02:42;14.22;;;4.73;;
14890;SDS011;7537;48.014;11.590;2022-10-22T17:08:09;5.65;;;2.48;;
14890;SDS011;7537;48.014;11.590;2022-10-22T17:13:39;3.34;;;1.23;;
14890;SDS011;7537;48.014;11.590;2022-10-22T17:19:09;4.99;;;5.05;;
14890;SDS011;7537;48.014;11.590;2022-10-22T17:24:37;8.45;;;6.46;;
14890;SDS011;7537;48.014;11.590;2022-10-22T17:30:07;2.59;;;1.77;;
14890;SDS011;7537;48.014;11.590;2022-10-22T17:35:34;8.74;;;1.39;;
14890;SDS011;7537;48.014;11.590;2022-10-22T17:41:07;4.99;;;1.15;;
14890;SDS011;7537;48.014;11.590;2022-10-22T17:46:36;4.04;;;1.51;;
14890;SDS011;7537;48.014;11.590;2022-10-22T17:52:03;3.01;;;2.97;;
14890;SDS011;7537;48.014;11.590;2022-10-22T17:57:31;4.36;;;1.38;;
14890;SDS011;7537;48.014;11.590;2022-10-22T18:03:02;2.46;;;1.30;;
14890;SDS011;7537;48.014;11.590;2022-10-22T18:08:31;5.26;;;1.29;;
14890;SDS011;7537;48.014;11.590;2022-10-22T18:13:58;3.59;;;0.74;;
14890;SDS011;7537;48.014;11.590;2022-10-22T18:19:28;2.24;;;0.62;;
14890;SDS011;7537;48.014;11.590;2022-10-22T18:24:55;3.74;;;1.03;;
14890;SDS011;7537;48.014;11.590;2022-10-22T18:30:23;4.19;;;1.19;;
14890;SDS011;7537;48.014;11.590;2022-10-22T18:35:55;10.40;;;1.22;;
14890;SDS011;7537;48.014;11.590;2022-10-22T18:41:23;1.40;;;0.96;;
14890;SDS011;7537;48.014;11.590;2022-10-22T18:46:51;2.10;;;1.53;;
14890;SDS011;7537;48.014;11.590;2022-10-22T18:53:56;6.39;;;5.72;;
14890;SDS011;7537;48.014;11.590;2022-10-22T18:59:27;4.88;;;1.75;;
14890;SDS011;7537;48.014;11.590;2022-10-22T19:05:03;1.57;;;1.23;;
14890;SDS011;7537;48.014;11.590;2022-10-22T19:10:30;2.14;;;2.25;;
14890;SDS011;7537;48.014;11.590;2022-10-22T19:16:01;2.85;;;1.83;;
14890;SDS011;7537;48.014;11.590;2022-10-22T19:21:29;2.38;;;2.24;;
14890;SDS011;7537;48.014;11.590;2022-10-22T19:27:00;3.51;;;2.30;;
14890;SDS011;7537;48.014;11.590;2022-10-22T19:32:27;11.27;;;2.72;;
14890;SDS011;7537;48.014;11.590;2022-10-22T19:39:33;3.69;;;1.80;;
14890;SDS011;7537;48.014;11.590;2022-10-22T19:45:00;2.72;;;1.43;;
14890;SDS011;7537;48.014;11.590;2022-10-22T19:50:28;6.50;;;1.11;;
14890;SDS011;7537;48.014;11.590;2022-10-22T19:55:56;3.61;;;1.14;;
14890;SDS011;7537;48.014;11.590;2022-10-22T20:01:24;1.03;;;1.04;;
14890;SDS011;7537;48.014;11.590;2022-10-22T20:06:55;3.81;;;1.72;;
14890;SDS011;7537;48.014;11.590;2022-10-22T20:12:22;2.45;;;1.55;;
14890;SDS011;7537;48.014;11.590;2022-10-22T20:17:50;6.34;;;1.31;;
14890;SDS011;7537;48.014;11.590;2022-10-22T20:23:19;5.12;;;1.36;;
14890;SDS011;7537;48.014;11.590;2022-10-22T20:28:47;4.29;;;3.17;;
14890;SDS011;7537;48.014;11.590;2022-10-22T20:34:14;4.79;;;2.83;;
14890;SDS011;7537;48.014;11.590;2022-10-22T20:39:53;4.19;;;1.93;;
14890;SDS011;7537;48.014;11.590;2022-10-22T20:45:20;2.53;;;1.84;;
14890;SDS011;7537;48.014;11.590;2022-10-22T20:50:48;4.63;;;2.29;;
14890;SDS011;7537;48.014;11.590;2022-10-22T20:56:15;4.22;;;1.77;;
14890;SDS011;7537;48.014;11.590;2022-10-22T21:01:45;4.44;;;1.84;;
14890;SDS011;7537;48.014;11.590;2022-10-22T21:07:14;1.41;;;1.44;;
14890;SDS011;7537;48.014;11.590;2022-10-22T21:12:43;3.56;;;1.59;;
14890;SDS011;7537;48.014;11.590;2022-10-22T21:18:13;3.19;;;1.98;;
14890;SDS011;7537;48.014;11.590;2022-10-22T21:23:42;1.45;;;1.46;;
14890;SDS011;7537;48.014;11.590;2022-10-22T21:29:10;1.63;;;1.72;;
14890;SDS011;7537;48.014;11.590;2022-10-22T21:34:38;6.16;;;3.08;;
14890;SDS011;7537;48.014;11.590;2022-10-22T21:40:10;2.32;;;2.51;;
14890;SDS011;7537;48.014;11.590;2022-10-22T21:45:40;3.84;;;2.05;;
14890;SDS011;7537;48.014;11.590;2022-10-22T21:51:08;3.16;;;1.88;;
14890;SDS011;7537;48.014;11.590;2022-10-22T21:56:36;3.57;;;2.25;;
14890;SDS011;7537;48.014;11.590;2022-10-22T22:02:03;2.43;;;2.26;;
14890;SDS011;7537;48.014;11.590;2022-10-22T22:07:31;5.50;;;1.97;;
14890;SDS011;7537;48.014;11.590;2022-10-22T22:12:58;2.20;;;1.56;;
14890;SDS011;7537;48.014;11.590;2022-10-22T22:18:27;3.69;;;1.92;;
14890;SDS011;7537;48.014;11.590;2022-10-22T22:23:55;5.58;;;1.60;;
14890;SDS011;7537;48.014;11.590;2022-10-22T22:29:23;2.73;;;1.60;;
14890;SDS011;7537;48.014;11.590;2022-10-22T22:34:50;2.28;;;1.45;;
14890;SDS011;7537;48.014;11.590;2022-10-22T22:40:21;8.71;;;2.44;;
14890;SDS011;7537;48.014;11.590;2022-10-22T22:45:56;2.38;;;1.79;;
14890;SDS011;7537;48.014;11.590;2022-10-22T22:51:25;2.17;;;1.82;;
14890;SDS011;7537;48.014;11.590;2022-10-22T22:56:53;4.72;;;1.59;;
14890;SDS011;7537;48.014;11.590;2022-10-22T23:02:20;2.78;;;1.98;;
14890;SDS011;7537;48.014;11.590;2022-10-22T23:07:47;2.22;;;2.19;;
14890;SDS011;7537;48.014;11.590;2022-10-22T23:13:15;2.17;;;1.52;;
14890;SDS011;7537;48.014;11.590;2022-10-22T23:18:42;1.88;;;1.79;;
14890;SDS011;7537;48.014;11.590;2022-10-22T23:24:12;3.36;;;1.64;;
14890;SDS011;7537;48.014;11.590;2022-10-22T23:29:40;4.31;;;1.89;;
14890;SDS011;7537;48.014;11.590;2022-10-22T23:35:09;4.14;;;1.46;;
14890;SDS011;7537;48.014;11.590;2022-10-22T23:40:39;2.90;;;1.89;;
14890;SDS011;7537;48.014;11.590;2022-10-22T23:46:08;0.99;;;1.14;;
14890;SDS011;7537;48.014;11.590;2022-10-22T23:51:36;2.17;;;1.34;;
14890;SDS011;7537;48.014;11.590;2022-10-22T23:57:05;1.24;;;0.97;;
